createdAt,value
2018-10-19T00:01:47.308Z,44.50
2018-10-19T00:04:15.302Z,43.30
2018-10-19T00:06:43.495Z,42.57
2018-10-19T00:09:11.869Z,43.67
2018-10-19T00:11:39.819Z,42.67
2018-10-19T00:14:07.785Z,43.13
2018-10-19T00:16:35.872Z,44.87
2018-10-19T00:19:03.881Z,43.33
2018-10-19T00:21:31.925Z,42.90
2018-10-19T00:23:59.993Z,43.80
2018-10-19T00:26:28.126Z,43.03
2018-10-19T00:28:56.153Z,44.03
2018-10-19T00:31:24.255Z,43.30
2018-10-19T00:33:53.441Z,46.13
2018-10-19T00:36:22.062Z,44.77
2018-10-19T00:38:50.140Z,43.40
2018-10-19T00:41:18.237Z,44.30
2018-10-19T00:43:46.356Z,44.37
2018-10-19T00:46:14.335Z,45.60
2018-10-19T00:48:42.397Z,42.60
2018-10-19T00:51:10.608Z,45.57
2018-10-19T00:53:38.522Z,42.37
2018-10-19T00:56:06.506Z,45.80
2018-10-19T00:58:34.544Z,41.87
2018-10-19T01:03:49.361Z,44.10
2018-10-19T01:06:17.406Z,42.83
2018-10-19T01:08:45.455Z,46.70
2018-10-19T01:11:13.473Z,45.37
2018-10-19T01:13:41.427Z,44.00
2018-10-19T01:16:10.207Z,46.87
2018-10-19T01:18:38.240Z,46.53
2018-10-19T01:21:06.793Z,46.80
2018-10-19T01:23:35.188Z,49.87
2018-10-19T01:26:03.217Z,49.70
2018-10-19T01:28:31.351Z,48.90
2018-10-19T01:30:59.570Z,47.57
2018-10-19T01:33:27.872Z,51.07
2018-10-19T01:35:55.972Z,49.03
2018-10-19T01:38:24.085Z,54.87
2018-10-19T01:40:52.207Z,51.13
2018-10-19T01:43:20.274Z,52.43
2018-10-19T01:45:53.899Z,52.13
2018-10-19T01:48:22.385Z,51.70
2018-10-19T01:50:50.483Z,53.50
2018-10-19T01:53:18.751Z,48.83
2018-10-19T01:55:47.508Z,53.67
2018-10-19T01:58:15.820Z,52.63
2018-10-19T02:00:43.844Z,51.87
2018-10-19T02:03:11.857Z,55.07
2018-10-19T02:05:40.478Z,53.33
2018-10-19T02:08:10.170Z,52.67
2018-10-19T02:10:38.404Z,56.93
2018-10-19T02:13:06.600Z,56.87
2018-10-19T02:15:34.740Z,57.10
2018-10-19T02:18:02.799Z,55.10
2018-10-19T02:20:30.945Z,57.07
2018-10-19T02:22:59.129Z,66.50
2018-10-19T02:25:27.485Z,67.67
2018-10-19T02:27:56.100Z,69.70
2018-10-19T02:30:24.383Z,69.40
2018-10-19T02:32:52.742Z,68.90
2018-10-19T02:35:20.863Z,61.77
2018-10-19T02:37:48.908Z,58.70
2018-10-19T02:40:16.907Z,60.33
2018-10-19T02:42:44.912Z,61.63
2018-10-19T02:45:12.957Z,57.70
2018-10-19T02:47:41.946Z,71.20
2018-10-19T02:50:10.314Z,68.60
2018-10-19T02:52:38.992Z,72.17
2018-10-19T02:55:07.426Z,78.00
2018-10-19T02:57:35.486Z,74.47
2018-10-19T03:00:03.543Z,82.13
2018-10-19T03:02:31.637Z,74.50
2018-10-19T03:04:59.871Z,83.23
2018-10-19T03:07:28.017Z,81.17
2018-10-19T03:09:56.264Z,77.57
2018-10-19T03:12:24.601Z,84.77
2018-10-19T03:14:52.929Z,88.07
2018-10-19T03:17:21.046Z,88.20
2018-10-19T03:19:49.147Z,83.93
2018-10-19T03:22:17.223Z,87.70
2018-10-19T03:24:45.337Z,86.17
2018-10-19T03:27:13.557Z,89.27
2018-10-19T03:29:41.533Z,90.60
2018-10-19T03:32:10.272Z,89.57
2018-10-19T03:34:38.701Z,87.63
2018-10-19T03:37:06.841Z,89.80
2018-10-19T03:39:34.822Z,85.33
2018-10-19T03:42:02.861Z,87.70
2018-10-19T03:44:31.015Z,82.57
2018-10-19T03:46:59.082Z,87.00
2018-10-19T03:49:27.286Z,82.80
2018-10-19T03:51:55.733Z,87.47
2018-10-19T03:54:24.434Z,85.37
2018-10-19T03:56:52.819Z,91.23
2018-10-19T03:59:21.006Z,86.33
2018-10-19T04:01:49.304Z,83.47
2018-10-19T04:04:17.502Z,82.33
2018-10-19T04:06:45.513Z,80.93
2018-10-19T04:09:14.006Z,80.00
2018-10-19T04:11:42.062Z,80.33
2018-10-19T04:14:11.421Z,80.37
2018-10-19T04:16:39.504Z,82.03
2018-10-19T04:19:08.145Z,83.13
2018-10-19T04:21:36.194Z,74.23
2018-10-19T04:24:04.235Z,75.37
2018-10-19T04:26:32.307Z,78.13
2018-10-19T04:29:00.405Z,82.20
2018-10-19T04:31:28.573Z,77.40
2018-10-19T04:33:56.713Z,79.67
2018-10-19T04:36:24.841Z,86.83
2018-10-19T04:38:53.396Z,84.80
2018-10-19T04:41:22.215Z,83.10
2018-10-19T04:43:50.201Z,80.47
2018-10-19T04:46:18.208Z,85.93
2018-10-19T04:48:46.282Z,81.00
2018-10-19T04:51:14.360Z,83.30
2018-10-19T04:53:42.444Z,81.43
2018-10-19T04:56:10.390Z,84.30
2018-10-19T04:58:38.372Z,84.93
2018-10-19T05:01:06.382Z,85.87
2018-10-19T05:03:34.968Z,82.97
2018-10-19T05:06:03.064Z,83.10
2018-10-19T05:08:31.015Z,85.10
2018-10-19T05:10:59.516Z,81.30
2018-10-19T05:13:27.485Z,81.40
2018-10-19T05:15:55.635Z,77.40
2018-10-19T05:18:23.991Z,77.43
2018-10-19T05:20:52.245Z,77.47
2018-10-19T05:23:21.295Z,74.70
2018-10-19T05:25:49.761Z,75.33
2018-10-19T05:28:19.512Z,78.17
2018-10-19T05:30:47.753Z,81.20
2018-10-19T05:33:15.830Z,75.50
2018-10-19T05:35:44.375Z,77.80
2018-10-19T05:38:12.958Z,79.27
2018-10-19T05:40:41.223Z,74.33
2018-10-19T05:43:11.794Z,74.17
2018-10-19T05:45:40.178Z,72.17
2018-10-19T05:48:08.154Z,66.73
2018-10-19T05:50:36.330Z,64.23
2018-10-19T05:53:04.615Z,66.00
2018-10-19T05:55:32.624Z,63.87
2018-10-19T05:58:00.699Z,60.17
2018-10-19T06:00:29.322Z,56.83
2018-10-19T06:02:57.549Z,53.70
2018-10-19T06:05:27.571Z,52.93
2018-10-19T06:07:56.936Z,54.57
2018-10-19T06:10:25.372Z,52.30
2018-10-19T06:12:54.439Z,54.70
2018-10-19T06:17:59.114Z,52.53
2018-10-19T06:20:27.317Z,54.63
2018-10-19T06:22:57.094Z,55.77
2018-10-19T06:25:25.369Z,57.93
2018-10-19T06:27:55.509Z,55.90
2018-10-19T06:30:23.787Z,56.50
2018-10-19T06:32:54.323Z,67.43
2018-10-19T06:35:28.618Z,67.07
2018-10-19T06:37:58.130Z,71.73
2018-10-19T06:40:32.038Z,74.30
2018-10-19T06:43:00.266Z,77.17
2018-10-19T06:45:28.534Z,77.53
2018-10-19T06:48:02.950Z,82.67
2018-10-19T06:50:31.065Z,83.07
2018-10-19T06:52:59.472Z,81.63
2018-10-19T06:55:28.436Z,80.30
2018-10-19T06:58:05.573Z,79.10
2018-10-19T07:00:34.032Z,74.93
2018-10-19T07:03:02.261Z,76.43
2018-10-19T07:05:35.959Z,75.67
2018-10-19T07:08:09.303Z,78.30
2018-10-19T07:10:37.389Z,72.67
2018-10-19T07:13:05.442Z,68.97
2018-10-19T07:15:33.704Z,67.33
2018-10-19T07:18:02.236Z,67.00
2018-10-19T07:20:30.598Z,64.30
2018-10-19T07:22:59.045Z,68.23
2018-10-19T07:25:27.347Z,62.47
2018-10-19T07:27:55.851Z,62.80
2018-10-19T07:30:25.097Z,65.30
2018-10-19T07:32:54.894Z,64.00
2018-10-19T07:35:24.763Z,63.47
2018-10-19T07:37:54.210Z,69.90
2018-10-19T07:42:57.805Z,62.70
2018-10-19T07:45:26.250Z,63.30
2018-10-19T07:47:54.771Z,62.93
2018-10-19T07:50:23.478Z,62.77
2018-10-19T07:52:52.099Z,58.03
2018-10-19T07:55:22.248Z,55.23
2018-10-19T07:57:50.449Z,56.47
2018-10-19T08:00:20.274Z,55.37
2018-10-19T08:02:49.006Z,55.20
2018-10-19T08:05:17.226Z,58.17
2018-10-19T08:07:46.112Z,54.20
2018-10-19T08:10:14.127Z,58.23
2018-10-19T08:12:42.625Z,58.70
2018-10-19T08:15:12.582Z,57.63
2018-10-19T08:17:41.385Z,62.50
2018-10-19T08:20:13.349Z,67.80
2018-10-19T08:22:42.082Z,70.20
2018-10-19T08:25:10.159Z,77.53
2018-10-19T08:27:38.545Z,68.80
2018-10-19T08:30:06.725Z,67.10
2018-10-19T08:32:35.795Z,68.73
2018-10-19T08:35:04.266Z,62.70
2018-10-19T08:37:32.612Z,62.07
2018-10-19T08:40:00.775Z,69.90
2018-10-19T08:42:29.126Z,70.17
2018-10-19T08:44:57.541Z,65.50
2018-10-19T08:47:25.933Z,68.70
2018-10-19T08:49:54.595Z,66.20
2018-10-19T08:52:22.809Z,69.50
2018-10-19T08:54:52.106Z,72.70
2018-10-19T08:57:20.278Z,69.10
2018-10-19T08:59:48.683Z,71.07
2018-10-19T09:02:17.122Z,70.63
2018-10-19T09:04:45.965Z,71.30
2018-10-19T09:07:18.791Z,69.30
2018-10-19T09:09:48.223Z,70.37
2018-10-19T09:12:18.933Z,72.63
2018-10-19T09:14:52.955Z,64.70
2018-10-19T09:17:21.179Z,68.20
2018-10-19T09:19:49.827Z,63.97
2018-10-19T09:22:18.340Z,73.27
2018-10-19T09:24:46.571Z,67.70
2018-10-19T09:27:14.673Z,71.53
2018-10-19T09:29:44.327Z,66.90
2018-10-19T09:32:12.455Z,67.70
2018-10-19T09:34:40.573Z,70.40
2018-10-19T09:37:09.906Z,68.27
2018-10-19T09:39:38.150Z,73.93
2018-10-19T09:42:06.366Z,68.07
2018-10-19T09:44:34.584Z,70.73
2018-10-19T09:47:02.694Z,77.00
2018-10-19T09:49:40.033Z,67.37
2018-10-19T09:52:09.557Z,73.53
2018-10-19T09:54:38.998Z,64.67
2018-10-19T09:57:07.199Z,64.87
2018-10-19T09:59:35.265Z,68.00
2018-10-19T10:02:03.283Z,67.40
2018-10-19T10:04:36.316Z,64.07
2018-10-19T10:07:06.590Z,65.83
2018-10-19T10:09:34.577Z,65.43
2018-10-19T10:12:02.861Z,70.30
2018-10-19T10:14:31.044Z,68.37
2018-10-19T10:17:10.544Z,64.60
2018-10-19T10:19:38.664Z,64.00
2018-10-19T10:22:06.855Z,66.43
2018-10-19T10:24:39.328Z,68.30
2018-10-19T10:27:07.364Z,69.23
2018-10-19T10:29:35.438Z,72.43
2018-10-19T10:32:03.647Z,66.80
2018-10-19T10:34:32.936Z,65.23
2018-10-19T10:37:01.845Z,70.50
2018-10-19T10:39:34.640Z,72.57
2018-10-19T10:42:02.781Z,72.60
2018-10-19T10:44:31.145Z,72.07
2018-10-19T10:46:59.533Z,71.63
2018-10-19T10:49:27.804Z,74.63
2018-10-19T10:52:04.198Z,73.97
2018-10-19T10:54:32.402Z,71.60
2018-10-19T10:57:05.496Z,74.40
2018-10-19T10:59:34.243Z,71.80
2018-10-19T11:02:02.581Z,68.70
2018-10-19T11:04:30.956Z,70.90
2018-10-19T11:06:59.227Z,72.33
2018-10-19T11:09:27.651Z,72.63
2018-10-19T11:12:08.206Z,77.40
2018-10-19T11:14:36.515Z,77.07
2018-10-19T11:17:05.425Z,71.93
2018-10-19T11:19:34.069Z,68.77
2018-10-19T11:22:07.956Z,69.53
2018-10-19T11:24:42.645Z,73.13
2018-10-19T11:27:10.790Z,71.27
2018-10-19T11:29:43.575Z,68.23
2018-10-19T11:32:11.713Z,71.23
2018-10-19T11:34:39.842Z,70.23
2018-10-19T11:37:09.625Z,73.57
2018-10-19T11:39:42.850Z,69.27
2018-10-19T11:42:11.038Z,72.70
2018-10-19T11:44:39.203Z,63.53
2018-10-19T11:47:07.250Z,73.63
2018-10-19T11:49:35.321Z,69.33
2018-10-19T11:52:06.877Z,71.70
2018-10-19T11:54:39.179Z,78.20
2018-10-19T11:57:13.833Z,77.70
2018-10-19T11:59:44.361Z,75.33
2018-10-19T12:04:55.358Z,74.40
2018-10-19T12:07:24.069Z,77.30
2018-10-19T12:09:58.096Z,80.73
2018-10-19T12:12:26.605Z,77.73
2018-10-19T12:15:01.285Z,71.70
2018-10-19T12:17:29.538Z,72.50
2018-10-19T12:20:04.431Z,75.70
2018-10-19T12:22:34.555Z,72.07
2018-10-19T12:25:07.473Z,69.37
2018-10-19T12:27:39.914Z,73.63
2018-10-19T12:30:18.437Z,64.73
2018-10-19T12:32:46.648Z,73.80
2018-10-19T12:35:19.672Z,76.07
2018-10-19T12:37:47.872Z,74.17
2018-10-19T12:40:16.157Z,70.10
2018-10-19T12:42:44.329Z,64.40
2018-10-19T12:45:18.969Z,62.27
2018-10-19T12:47:51.866Z,65.43
2018-10-19T12:50:20.631Z,68.67
2018-10-19T12:52:49.599Z,69.07
2018-10-19T12:55:17.969Z,63.33
2018-10-19T12:57:46.637Z,65.33
2018-10-19T13:00:15.005Z,63.63
2018-10-19T13:02:43.175Z,65.50
2018-10-19T13:05:11.986Z,60.97
2018-10-19T13:07:40.955Z,62.63
2018-10-19T13:10:09.193Z,62.67
2018-10-19T13:12:38.155Z,65.10
2018-10-19T13:15:06.409Z,62.40
2018-10-19T13:17:34.693Z,62.60
2018-10-19T13:20:04.437Z,60.30
2018-10-19T13:22:34.940Z,56.70
2018-10-19T13:25:04.150Z,56.20
2018-10-19T13:27:33.985Z,57.13
2018-10-19T13:30:09.019Z,53.30
2018-10-19T13:32:41.854Z,55.57
2018-10-19T13:37:51.435Z,49.60
2018-10-19T13:40:19.702Z,50.90
2018-10-19T13:42:49.619Z,53.60
2018-10-19T13:45:22.641Z,52.93
2018-10-19T13:47:50.867Z,47.97
2018-10-19T13:53:02.516Z,46.97
2018-10-19T13:55:30.977Z,44.87
2018-10-19T14:00:46.884Z,44.20
2018-10-19T14:03:15.112Z,46.00
2018-10-19T14:08:20.620Z,49.83
2018-10-19T14:10:49.225Z,46.90
2018-10-19T14:13:18.942Z,53.93
2018-10-19T14:15:47.361Z,50.70
2018-10-19T14:18:16.300Z,51.00
2018-10-19T14:20:44.965Z,49.90
2018-10-19T14:28:28.864Z,50.80
2018-10-19T14:33:43.167Z,56.67
2018-10-19T14:36:13.053Z,56.53
2018-10-19T14:38:42.302Z,58.93
2018-10-19T14:41:10.589Z,59.67
2018-10-19T14:43:38.691Z,58.40
2018-10-19T14:46:06.749Z,56.07
2018-10-19T14:48:34.981Z,54.70
2018-10-19T14:51:03.323Z,59.40
2018-10-19T14:53:32.018Z,60.77
2018-10-19T14:56:00.225Z,58.77
2018-10-19T14:58:28.550Z,61.60
2018-10-19T15:03:38.627Z,61.63
2018-10-19T15:06:11.492Z,58.70
2018-10-19T15:08:39.659Z,56.20
2018-10-19T15:11:08.753Z,58.00
2018-10-19T15:13:37.757Z,59.07
2018-10-19T15:16:06.007Z,57.60
2018-10-19T15:18:34.283Z,54.33
2018-10-19T15:21:02.867Z,57.73
2018-10-19T15:23:32.062Z,58.37
2018-10-19T15:26:00.191Z,54.83
2018-10-19T15:28:28.551Z,56.80
2018-10-19T15:30:58.294Z,56.97
2018-10-19T15:36:07.505Z,56.37
2018-10-19T15:38:40.292Z,57.00
2018-10-19T15:43:50.566Z,58.27
2018-10-19T15:46:19.516Z,57.80
2018-10-19T15:48:47.695Z,56.27
2018-10-19T15:51:21.487Z,55.57
2018-10-19T15:53:49.931Z,58.27
2018-10-19T15:56:19.320Z,56.47
2018-10-19T15:58:48.226Z,56.47
2018-10-19T16:01:22.544Z,57.33
2018-10-19T16:09:08.303Z,60.73
2018-10-19T16:11:36.615Z,57.37
2018-10-19T16:14:05.170Z,57.13
2018-10-19T16:16:33.430Z,58.37
2018-10-19T16:19:02.303Z,58.90
2018-10-19T16:21:31.487Z,59.80
2018-10-19T16:23:59.913Z,60.47
2018-10-19T16:26:30.394Z,57.80
2018-10-19T16:29:01.328Z,60.03
2018-10-19T16:31:39.758Z,63.37
2018-10-19T16:34:09.174Z,64.53
2018-10-19T16:36:42.958Z,60.97
2018-10-19T16:39:11.532Z,61.77
2018-10-19T16:41:40.042Z,68.97
2018-10-19T16:46:45.089Z,63.27
2018-10-19T16:49:13.650Z,65.70
2018-10-19T17:00:59.806Z,66.83
2018-10-19T17:03:28.182Z,65.57
2018-10-19T17:05:57.771Z,65.90
2018-10-19T17:08:30.539Z,67.17
2018-10-19T17:10:58.737Z,65.80
2018-10-19T17:13:31.661Z,63.37
2018-10-19T17:16:00.589Z,64.60
2018-10-19T17:18:28.967Z,65.20
2018-10-19T17:20:57.650Z,66.77
2018-10-19T17:23:26.301Z,66.00
2018-10-19T17:25:55.218Z,63.00
2018-10-19T17:28:23.729Z,66.23
2018-10-19T17:30:52.548Z,70.10
2018-10-19T17:33:20.845Z,68.43
2018-10-19T17:35:49.141Z,64.70
2018-10-19T17:38:17.570Z,65.17
2018-10-19T17:40:45.982Z,63.50
2018-10-19T17:43:14.318Z,64.70
2018-10-19T17:45:42.542Z,63.63
2018-10-19T17:48:10.783Z,64.13
2018-10-19T17:50:39.032Z,68.40
2018-10-19T17:53:07.196Z,62.80
2018-10-19T17:55:37.402Z,65.10
2018-10-19T17:58:05.612Z,62.87
2018-10-19T18:00:33.917Z,66.00
2018-10-19T18:03:02.167Z,67.90
2018-10-19T18:05:31.092Z,65.07
2018-10-19T18:08:01.625Z,64.93
2018-10-19T18:10:30.631Z,70.90
2018-10-19T18:12:58.905Z,59.17
2018-10-19T18:15:27.228Z,65.63
2018-10-19T18:17:55.444Z,65.00
2018-10-19T18:20:24.054Z,62.33
2018-10-19T18:22:52.434Z,66.23
2018-10-19T18:25:20.699Z,67.27
2018-10-19T18:27:48.935Z,62.73
2018-10-19T18:30:17.194Z,63.17
2018-10-19T18:32:50.143Z,68.30
2018-10-19T18:35:19.661Z,65.30
2018-10-19T18:37:47.904Z,71.70
2018-10-19T18:40:16.359Z,68.70
2018-10-19T18:42:44.485Z,66.93
2018-10-19T18:45:12.885Z,70.67
2018-10-19T18:47:41.373Z,64.33
2018-10-19T18:50:09.677Z,69.80
2018-10-19T18:52:38.312Z,74.33
2018-10-19T18:55:06.893Z,73.40
2018-10-19T18:57:34.996Z,70.00
2018-10-19T19:00:03.325Z,69.30
2018-10-19T19:02:31.718Z,65.00
2018-10-19T19:05:00.251Z,73.67
2018-10-19T19:07:28.671Z,68.27
2018-10-19T19:10:02.119Z,73.83
2018-10-19T19:12:30.361Z,70.83
2018-10-19T19:14:58.651Z,73.10
2018-10-19T19:17:27.030Z,75.03
2018-10-19T19:20:00.698Z,74.43
2018-10-19T19:22:29.195Z,73.40
2018-10-19T19:25:02.777Z,71.40
2018-10-19T19:27:31.066Z,67.80
2018-10-19T19:29:59.526Z,71.23
2018-10-19T19:32:29.404Z,70.07
2018-10-19T19:34:57.558Z,71.37
2018-10-19T19:37:25.770Z,71.37
2018-10-19T19:39:54.617Z,74.70
2018-10-19T19:42:28.466Z,73.60
2018-10-19T19:44:56.796Z,76.20
2018-10-19T19:47:30.306Z,71.97
2018-10-19T19:50:03.301Z,74.27
2018-10-19T19:52:31.680Z,80.00
2018-10-19T19:54:59.877Z,76.43
2018-10-19T19:57:28.177Z,77.00
2018-10-19T19:59:56.571Z,79.27
2018-10-19T20:02:25.245Z,75.90
2018-10-19T20:04:53.989Z,76.00
2018-10-19T20:07:23.119Z,83.40
2018-10-19T20:09:51.680Z,82.60
2018-10-19T20:12:20.059Z,78.47
2018-10-19T20:14:48.239Z,79.40
2018-10-19T20:17:16.727Z,81.37
2018-10-19T20:19:44.857Z,81.90
2018-10-19T20:22:13.107Z,74.10
2018-10-19T20:24:41.554Z,80.03
2018-10-19T20:27:09.721Z,80.47
2018-10-19T20:29:37.940Z,79.90
2018-10-19T20:32:06.174Z,77.47
2018-10-19T20:34:34.430Z,78.57
2018-10-19T20:37:02.840Z,75.67
2018-10-19T20:39:31.018Z,77.40
2018-10-19T20:41:59.212Z,77.67
2018-10-19T20:44:27.429Z,78.00
2018-10-19T20:46:55.962Z,82.30
2018-10-19T20:49:24.361Z,80.40
2018-10-19T20:51:52.652Z,77.17
2018-10-19T20:54:20.680Z,79.97
2018-10-19T20:56:48.939Z,81.67
2018-10-19T20:59:17.052Z,80.47
2018-10-19T21:01:45.185Z,82.40
2018-10-19T21:04:13.244Z,80.00
2018-10-19T21:06:41.321Z,80.13
2018-10-19T21:09:10.518Z,79.77
2018-10-19T21:11:39.240Z,80.73
2018-10-19T21:14:07.855Z,83.37
2018-10-19T21:16:35.894Z,78.20
2018-10-19T21:19:03.951Z,77.17
2018-10-19T21:21:32.207Z,80.93
2018-10-19T21:24:00.309Z,84.13
2018-10-19T21:26:28.372Z,76.27
2018-10-19T21:28:56.579Z,80.03
2018-10-19T21:31:24.661Z,81.50
2018-10-19T21:33:52.864Z,85.50
2018-10-19T21:36:21.449Z,80.37
2018-10-19T21:38:49.478Z,77.03
2018-10-19T21:41:17.602Z,81.67
2018-10-19T21:43:45.855Z,83.67
2018-10-19T21:46:13.970Z,81.30
2018-10-19T21:48:41.937Z,82.57
2018-10-19T21:51:09.974Z,78.83
2018-10-19T21:53:37.985Z,77.53
2018-10-19T21:56:06.255Z,81.07
2018-10-19T21:58:34.367Z,74.87
2018-10-19T22:01:02.366Z,85.30
2018-10-19T22:03:30.381Z,82.33
2018-10-19T22:05:58.533Z,89.17
2018-10-19T22:08:26.909Z,80.30
2018-10-19T22:10:55.065Z,86.03
2018-10-19T22:13:23.268Z,81.70
2018-10-19T22:15:51.722Z,82.53
2018-10-19T22:18:19.871Z,79.40
2018-10-19T22:20:48.102Z,79.60
2018-10-19T22:23:16.253Z,82.93
2018-10-19T22:25:44.209Z,81.10
2018-10-19T22:28:12.218Z,88.43
2018-10-19T22:30:40.221Z,87.80
2018-10-19T22:33:08.165Z,87.73
2018-10-19T22:35:36.288Z,88.40
2018-10-19T22:38:04.366Z,90.30
2018-10-19T22:40:32.513Z,87.80
2018-10-19T22:43:00.617Z,86.37
2018-10-19T22:45:28.657Z,88.87
2018-10-19T22:47:56.705Z,85.03
2018-10-19T22:50:24.827Z,87.37
2018-10-19T22:52:52.935Z,92.83
2018-10-19T22:55:20.885Z,90.00
2018-10-19T22:57:48.956Z,89.87
2018-10-19T23:00:17.013Z,89.67
2018-10-19T23:02:45.112Z,84.97
2018-10-19T23:05:13.293Z,84.90
2018-10-19T23:07:41.183Z,86.97
2018-10-19T23:10:09.385Z,87.50
2018-10-19T23:12:37.481Z,86.23
2018-10-19T23:15:05.771Z,89.37
2018-10-19T23:17:33.823Z,89.20
2018-10-19T23:20:01.936Z,92.13
2018-10-19T23:22:29.979Z,92.70
2018-10-19T23:24:58.127Z,93.30
2018-10-19T23:27:26.491Z,91.40
2018-10-19T23:29:54.606Z,89.20
2018-10-19T23:32:23.036Z,90.50
2018-10-19T23:34:51.280Z,94.90
2018-10-19T23:37:19.289Z,94.97
2018-10-19T23:39:47.333Z,89.23
2018-10-19T23:42:15.416Z,95.47
2018-10-19T23:44:43.371Z,87.93
2018-10-19T23:47:11.504Z,90.10
2018-10-19T23:49:39.494Z,90.20
2018-10-19T23:52:07.538Z,92.07
2018-10-19T23:54:35.506Z,92.10
2018-10-19T23:57:03.592Z,90.60
2018-10-19T23:59:31.768Z,92.57
